createdAt,value
2018-11-11T00:00:01.088Z,20
2018-11-11T00:01:01.088Z,22
2018-11-11T00:02:01.117Z,24
2018-11-11T00:03:01.086Z,21
2018-11-11T00:05:01.089Z,20
2018-11-11T00:06:01.093Z,18
2018-11-11T00:07:01.118Z,17
2018-11-11T00:12:01.131Z,16
2018-11-11T00:13:02.137Z,15
2018-11-11T00:14:01.093Z,16
2018-11-11T00:15:01.094Z,15
2018-11-11T00:17:01.239Z,16
2018-11-11T00:19:01.095Z,14
2018-11-11T00:21:01.097Z,15
2018-11-11T00:23:01.129Z,16
2018-11-11T00:24:01.096Z,17
2018-11-11T00:25:01.107Z,19
2018-11-11T00:26:01.900Z,20
2018-11-11T00:27:01.094Z,18
2018-11-11T00:28:01.136Z,19
2018-11-11T00:29:01.102Z,17
2018-11-11T00:30:01.096Z,16
2018-11-11T00:31:01.099Z,14
2018-11-11T00:32:01.096Z,15
2018-11-11T00:33:01.131Z,13
2018-11-11T00:34:01.094Z,15
2018-11-11T00:35:01.095Z,16
2018-11-11T00:36:01.094Z,18
2018-11-11T00:37:01.095Z,19
2018-11-11T00:39:01.995Z,20
2018-11-11T00:40:01.094Z,18
2018-11-11T00:42:01.100Z,17
2018-11-11T00:44:01.130Z,16
2018-11-11T00:45:01.098Z,17
2018-11-11T00:46:01.094Z,16
2018-11-11T00:51:01.100Z,15
2018-11-11T00:52:02.432Z,16
2018-11-11T00:53:01.098Z,18
2018-11-11T00:54:01.230Z,19
2018-11-11T00:57:01.091Z,18
2018-11-11T00:58:01.091Z,16
2018-11-11T01:00:01.094Z,16
2018-11-11T01:01:01.092Z,17
2018-11-11T01:03:01.093Z,16
2018-11-11T01:04:01.092Z,17
2018-11-11T01:05:01.092Z,19
2018-11-11T01:06:01.093Z,20
2018-11-11T01:07:01.100Z,21
2018-11-11T01:08:01.094Z,22
2018-11-11T01:09:01.093Z,20
2018-11-11T01:10:01.096Z,18
2018-11-11T01:11:01.097Z,16
2018-11-11T01:12:01.130Z,17
2018-11-11T01:13:01.095Z,16
2018-11-11T01:14:01.094Z,15
2018-11-11T01:15:01.099Z,17
2018-11-11T01:16:01.095Z,16
2018-11-11T01:18:01.098Z,15
2018-11-11T01:19:01.096Z,16
2018-11-11T01:21:01.095Z,17
2018-11-11T01:24:01.096Z,19
2018-11-11T01:25:01.097Z,18
2018-11-11T01:27:01.097Z,19
2018-11-11T01:29:01.097Z,17
2018-11-11T01:30:01.098Z,17
2018-11-11T01:31:01.096Z,16
2018-11-11T01:32:01.096Z,14
2018-11-11T01:33:01.098Z,13
2018-11-11T01:34:01.094Z,14
2018-11-11T01:35:01.095Z,16
2018-11-11T01:37:01.097Z,17
2018-11-11T01:39:01.098Z,16
2018-11-11T01:40:01.101Z,15
2018-11-11T01:42:01.096Z,17
2018-11-11T01:43:01.687Z,18
2018-11-11T01:44:01.100Z,19
2018-11-11T01:45:01.098Z,18
2018-11-11T01:47:01.141Z,15
2018-11-11T01:48:01.100Z,16
2018-11-11T01:49:01.101Z,15
2018-11-11T01:50:01.096Z,17
2018-11-11T01:52:01.096Z,19
2018-11-11T01:53:01.100Z,18
2018-11-11T01:55:01.099Z,17
2018-11-11T01:57:01.130Z,18
2018-11-11T01:58:01.100Z,19
2018-11-11T01:59:01.694Z,20
2018-11-11T02:00:01.100Z,19
2018-11-11T02:01:01.134Z,18
2018-11-11T02:02:01.102Z,17
2018-11-11T02:05:01.085Z,16
2018-11-11T02:06:01.150Z,17
2018-11-11T02:07:01.083Z,18
2018-11-11T02:08:01.084Z,19
2018-11-11T02:10:01.086Z,21
2018-11-11T02:11:01.084Z,22
2018-11-11T02:12:01.116Z,24
2018-11-11T02:13:01.093Z,23
2018-11-11T02:14:01.092Z,24
2018-11-11T02:15:01.082Z,21
2018-11-11T02:16:01.084Z,20
2018-11-11T02:17:02.133Z,19
2018-11-11T02:18:01.083Z,20
2018-11-11T02:19:01.089Z,19
2018-11-11T02:20:01.137Z,20
2018-11-11T02:21:01.093Z,23
2018-11-11T02:22:01.115Z,21
2018-11-11T02:23:01.083Z,19
2018-11-11T02:25:01.082Z,21
2018-11-11T02:26:01.083Z,20
2018-11-11T02:27:01.126Z,21
2018-11-11T02:28:01.086Z,23
2018-11-11T02:30:01.087Z,20
2018-11-11T02:32:01.089Z,19
2018-11-11T02:33:01.121Z,20
2018-11-11T02:34:01.091Z,17
2018-11-11T02:38:01.135Z,18
2018-11-11T02:39:01.091Z,20
2018-11-11T02:41:01.094Z,19
2018-11-11T02:42:01.089Z,18
2018-11-11T02:44:01.123Z,19
2018-11-11T02:45:01.089Z,18
2018-11-11T02:46:01.090Z,17
2018-11-11T02:47:01.092Z,18
2018-11-11T02:48:01.093Z,16
2018-11-11T02:50:01.089Z,15
2018-11-11T02:51:01.941Z,16
2018-11-11T02:54:01.125Z,15
2018-11-11T02:55:01.091Z,16
2018-11-11T02:56:01.091Z,21
2018-11-11T02:57:01.092Z,19
2018-11-11T02:59:01.151Z,20
2018-11-11T03:00:01.102Z,20
2018-11-11T03:01:01.094Z,17
2018-11-11T03:02:01.094Z,16
2018-11-11T03:03:01.135Z,15
2018-11-11T03:04:01.099Z,16
2018-11-11T03:06:01.095Z,15
2018-11-11T03:07:01.095Z,16
2018-11-11T03:09:01.132Z,15
2018-11-11T03:10:01.100Z,16
2018-11-11T03:11:01.095Z,15
2018-11-11T03:13:01.096Z,14
2018-11-11T03:14:01.128Z,15
2018-11-11T03:15:01.123Z,15
2018-11-11T03:16:01.097Z,14
2018-11-11T03:17:01.100Z,16
2018-11-11T03:18:01.102Z,17
2018-11-11T03:21:01.097Z,19
2018-11-11T03:22:01.096Z,18
2018-11-11T03:23:01.098Z,19
2018-11-11T03:25:01.104Z,17
2018-11-11T03:26:01.102Z,14
2018-11-11T03:27:01.097Z,15
2018-11-11T03:28:01.099Z,14
2018-11-11T03:30:06.119Z,14
2018-11-11T03:32:01.084Z,15
2018-11-11T03:33:01.083Z,16
2018-11-11T03:34:01.084Z,15
2018-11-11T03:35:01.974Z,16
2018-11-11T03:36:01.084Z,18
2018-11-11T03:38:01.180Z,17
2018-11-11T03:39:01.097Z,16
2018-11-11T03:44:01.114Z,17
2018-11-11T03:45:01.085Z,17
2018-11-11T03:48:01.120Z,18
2018-11-11T03:49:01.085Z,17
2018-11-11T03:50:01.085Z,15
2018-11-11T03:51:01.083Z,16
2018-11-11T03:52:01.087Z,15
2018-11-11T03:54:01.115Z,16
2018-11-11T03:55:01.084Z,17
2018-11-11T03:57:01.091Z,21
2018-11-11T03:58:01.127Z,22
2018-11-11T03:59:01.087Z,21
2018-11-11T04:00:01.089Z,20
2018-11-11T04:02:01.089Z,18
2018-11-11T04:03:01.090Z,17
2018-11-11T04:04:01.118Z,19
2018-11-11T04:05:01.098Z,20
2018-11-11T04:06:01.096Z,18
2018-11-11T04:07:01.092Z,20
2018-11-11T04:09:01.120Z,18
2018-11-11T04:11:01.198Z,19
2018-11-11T04:12:01.093Z,17
2018-11-11T04:15:01.089Z,19
2018-11-11T04:16:01.119Z,18
2018-11-11T04:18:01.091Z,19
2018-11-11T04:19:01.089Z,20
2018-11-11T04:20:01.090Z,18
2018-11-11T04:22:01.122Z,19
2018-11-11T04:23:01.089Z,16
2018-11-11T04:24:01.093Z,15
2018-11-11T04:25:01.089Z,16
2018-11-11T04:26:01.126Z,17
2018-11-11T04:29:01.118Z,18
2018-11-11T04:30:01.097Z,15
2018-11-11T04:31:01.123Z,14
2018-11-11T04:32:01.096Z,13
2018-11-11T04:33:01.093Z,14
2018-11-11T04:34:01.236Z,12
2018-11-11T04:35:01.091Z,14
2018-11-11T04:38:01.124Z,15
2018-11-11T04:39:01.106Z,16
2018-11-11T04:43:01.124Z,17
2018-11-11T04:44:01.091Z,18
2018-11-11T04:45:01.091Z,18
2018-11-11T04:46:01.122Z,20
2018-11-11T04:47:01.091Z,19
2018-11-11T04:48:01.096Z,18
2018-11-11T04:49:01.092Z,19
2018-11-11T04:51:01.127Z,17
2018-11-11T04:52:01.094Z,19
2018-11-11T04:54:01.098Z,18
2018-11-11T04:55:01.097Z,16
2018-11-11T04:56:01.133Z,17
2018-11-11T04:57:01.098Z,16
2018-11-11T04:58:01.099Z,17
2018-11-11T04:59:01.102Z,16
2018-11-11T05:00:01.097Z,17
2018-11-11T05:01:01.135Z,15
2018-11-11T05:02:01.100Z,16
2018-11-11T05:03:01.121Z,17
2018-11-11T05:05:01.100Z,16
2018-11-11T05:08:01.126Z,14
2018-11-11T05:09:01.099Z,13
2018-11-11T05:10:01.103Z,14
2018-11-11T05:11:01.144Z,16
2018-11-11T05:13:01.084Z,17
2018-11-11T05:15:01.184Z,17
2018-11-11T05:17:01.115Z,15
2018-11-11T05:18:01.083Z,16
2018-11-11T05:20:01.082Z,14
2018-11-11T05:21:06.086Z,16
2018-11-11T05:22:01.203Z,17
2018-11-11T05:23:01.085Z,16
2018-11-11T05:25:01.084Z,17
2018-11-11T05:26:01.089Z,14
2018-11-11T05:28:01.186Z,15
2018-11-11T05:29:01.086Z,17
2018-11-11T05:30:01.085Z,19
2018-11-11T05:31:01.171Z,21
2018-11-11T05:32:01.086Z,22
2018-11-11T05:33:01.157Z,19
2018-11-11T05:34:01.086Z,18
2018-11-11T05:35:01.086Z,17
2018-11-11T05:37:01.082Z,16
2018-11-11T05:38:01.124Z,18
2018-11-11T05:39:01.113Z,17
2018-11-11T05:40:01.084Z,16
2018-11-11T05:42:01.084Z,17
2018-11-11T05:44:01.115Z,18
2018-11-11T05:45:01.086Z,17
2018-11-11T05:46:01.084Z,18
2018-11-11T05:47:01.084Z,17
2018-11-11T05:48:01.083Z,15
2018-11-11T05:49:01.117Z,16
2018-11-11T05:50:01.088Z,17
2018-11-11T05:51:01.084Z,14
2018-11-11T05:52:01.083Z,15
2018-11-11T05:56:01.083Z,19
2018-11-11T05:57:01.083Z,18
2018-11-11T05:59:01.088Z,17
2018-11-11T06:00:01.083Z,18
2018-11-11T06:01:01.088Z,16
2018-11-11T06:02:01.083Z,15
2018-11-11T06:03:01.083Z,14
2018-11-11T06:04:01.087Z,18
2018-11-11T06:05:01.086Z,16
2018-11-11T06:06:01.083Z,15
2018-11-11T06:07:01.084Z,17
2018-11-11T06:08:01.083Z,19
2018-11-11T06:09:01.090Z,16
2018-11-11T06:10:01.085Z,17
2018-11-11T06:13:01.089Z,15
2018-11-11T06:14:01.150Z,16
2018-11-11T06:15:01.151Z,16
2018-11-11T06:17:01.085Z,17
2018-11-11T06:18:01.090Z,18
2018-11-11T06:19:01.084Z,17
2018-11-11T06:21:01.088Z,16
2018-11-11T06:23:01.084Z,17
2018-11-11T06:25:02.151Z,18
2018-11-11T06:26:01.089Z,20
2018-11-11T06:27:01.092Z,21
2018-11-11T06:28:01.095Z,19
2018-11-11T06:30:01.098Z,19
2018-11-11T06:31:01.087Z,18
2018-11-11T06:32:01.093Z,16
2018-11-11T06:33:01.087Z,18
2018-11-11T06:34:01.165Z,17
2018-11-11T06:36:01.131Z,19
2018-11-11T06:37:01.216Z,20
2018-11-11T06:38:01.091Z,19
2018-11-11T06:39:01.097Z,21
2018-11-11T06:40:06.124Z,20
2018-11-11T06:41:01.089Z,18
2018-11-11T06:42:01.088Z,19
2018-11-11T06:43:01.090Z,20
2018-11-11T06:44:01.088Z,19
2018-11-11T06:45:01.145Z,18
2018-11-11T06:47:01.093Z,17
2018-11-11T06:48:01.144Z,18
2018-11-11T06:51:01.931Z,19
2018-11-11T06:52:01.091Z,18
2018-11-11T06:55:01.088Z,17
2018-11-11T06:56:01.125Z,18
2018-11-11T06:57:01.091Z,17
2018-11-11T06:58:01.162Z,16
2018-11-11T07:00:01.093Z,16
2018-11-11T07:01:01.087Z,17
2018-11-11T07:02:01.089Z,18
2018-11-11T07:04:01.089Z,17
2018-11-11T07:05:01.089Z,19
2018-11-11T07:06:01.102Z,18
2018-11-11T07:07:01.089Z,17
2018-11-11T07:08:01.089Z,16
2018-11-11T07:09:01.092Z,17
2018-11-11T07:10:01.093Z,15
2018-11-11T07:12:01.088Z,16
2018-11-11T07:13:01.092Z,17
2018-11-11T07:14:01.167Z,20
2018-11-11T07:15:01.095Z,21
2018-11-11T07:16:01.094Z,20
2018-11-11T07:18:01.088Z,19
2018-11-11T07:19:01.089Z,16
2018-11-11T07:20:01.089Z,15
2018-11-11T07:21:01.090Z,17
2018-11-11T07:22:01.117Z,19
2018-11-11T07:23:01.092Z,18
2018-11-11T07:24:01.141Z,19
2018-11-11T07:26:01.133Z,18
2018-11-11T07:27:01.089Z,15
2018-11-11T07:28:01.089Z,14
2018-11-11T07:29:01.149Z,15
2018-11-11T07:30:01.090Z,14
2018-11-11T07:31:01.089Z,17
2018-11-11T07:32:01.093Z,16
2018-11-11T07:33:01.092Z,18
2018-11-11T07:35:01.090Z,19
2018-11-11T07:36:01.135Z,17
2018-11-11T07:37:01.094Z,20
2018-11-11T07:38:01.093Z,19
2018-11-11T07:39:01.091Z,17
2018-11-11T07:40:01.093Z,16
2018-11-11T07:42:01.096Z,15
2018-11-11T07:43:01.099Z,17
2018-11-11T07:44:01.092Z,18
2018-11-11T07:45:01.094Z,20
2018-11-11T07:47:01.097Z,19
2018-11-11T07:49:01.094Z,18
2018-11-11T07:51:01.134Z,17
2018-11-11T07:52:01.193Z,19
2018-11-11T07:53:01.096Z,18
2018-11-11T07:54:02.081Z,17
2018-11-11T07:55:01.139Z,16
2018-11-11T07:57:01.110Z,17
2018-11-11T07:59:01.130Z,19
2018-11-11T08:00:01.106Z,20
2018-11-11T08:02:01.145Z,19
2018-11-11T08:05:01.099Z,18
2018-11-11T08:09:01.138Z,16
2018-11-11T08:10:01.104Z,17
2018-11-11T08:12:01.102Z,16
2018-11-11T08:14:01.137Z,17
2018-11-11T08:15:01.104Z,17
2018-11-11T08:16:01.102Z,16
2018-11-11T08:17:01.104Z,17
2018-11-11T08:18:01.108Z,16
2018-11-11T08:19:06.108Z,15
2018-11-11T08:21:01.099Z,16
2018-11-11T08:23:01.087Z,17
2018-11-11T08:24:01.179Z,16
2018-11-11T08:25:01.082Z,18
2018-11-11T08:26:01.093Z,20
2018-11-11T08:27:01.214Z,19
2018-11-11T08:29:01.087Z,21
2018-11-11T08:30:01.087Z,19
2018-11-11T08:31:01.094Z,17
2018-11-11T08:32:01.140Z,16
2018-11-11T08:33:01.115Z,15
2018-11-11T08:34:01.085Z,14
2018-11-11T08:35:01.086Z,15
2018-11-11T08:36:01.087Z,16
2018-11-11T08:37:01.086Z,19
2018-11-11T08:38:01.091Z,18
2018-11-11T08:41:01.090Z,17
2018-11-11T08:42:01.085Z,16
2018-11-11T08:43:01.086Z,17
2018-11-11T08:45:01.091Z,15
2018-11-11T08:47:01.088Z,14
2018-11-11T08:48:01.147Z,15
2018-11-11T08:49:01.094Z,16
2018-11-11T08:50:02.168Z,18
2018-11-11T08:51:01.085Z,19
2018-11-11T08:52:01.088Z,20
2018-11-11T08:53:01.092Z,19
2018-11-11T08:57:01.090Z,17
2018-11-11T08:58:01.127Z,16
2018-11-11T09:00:01.094Z,16
2018-11-11T09:01:01.121Z,15
2018-11-11T09:03:01.094Z,18
2018-11-11T09:06:01.088Z,19
2018-11-11T09:07:01.092Z,20
2018-11-11T09:08:01.089Z,18
2018-11-11T09:09:01.088Z,19
2018-11-11T09:10:01.089Z,17
2018-11-11T09:11:01.088Z,16
2018-11-11T09:12:01.088Z,17
2018-11-11T09:14:01.087Z,16
2018-11-11T09:15:06.102Z,19
2018-11-11T09:16:01.091Z,20
2018-11-11T09:17:01.088Z,19
2018-11-11T09:18:01.090Z,20
2018-11-11T09:20:02.223Z,21
2018-11-11T09:21:01.092Z,20
2018-11-11T09:23:01.089Z,19
2018-11-11T09:26:01.088Z,18
2018-11-11T09:28:01.093Z,19
2018-11-11T09:29:01.129Z,20
2018-11-11T09:30:01.151Z,18
2018-11-11T09:31:01.086Z,19
2018-11-11T09:32:01.090Z,18
2018-11-11T09:33:01.086Z,16
2018-11-11T09:37:01.089Z,17
2018-11-11T09:39:01.165Z,16
2018-11-11T09:43:01.091Z,17
2018-11-11T09:44:01.091Z,18
2018-11-11T09:45:01.138Z,17
2018-11-11T09:46:01.090Z,18
2018-11-11T09:48:01.214Z,19
2018-11-11T09:49:01.094Z,17
2018-11-11T09:52:01.161Z,18
2018-11-11T09:53:01.091Z,17
2018-11-11T09:54:01.135Z,19
2018-11-11T09:55:01.136Z,20
2018-11-11T09:57:01.095Z,19
2018-11-11T09:59:01.099Z,20
2018-11-11T10:00:01.123Z,17
2018-11-11T10:03:01.128Z,18
2018-11-11T10:04:01.092Z,16
2018-11-11T10:05:01.092Z,17
2018-11-11T10:07:01.195Z,16
2018-11-11T10:08:01.105Z,15
2018-11-11T10:10:01.092Z,14
2018-11-11T10:11:01.094Z,16
2018-11-11T10:12:01.128Z,18
2018-11-11T10:13:01.098Z,19
2018-11-11T10:14:01.093Z,20
2018-11-11T10:15:01.094Z,20
2018-11-11T10:16:01.092Z,19
2018-11-11T10:17:01.094Z,17
2018-11-11T10:19:01.387Z,16
2018-11-11T10:21:01.170Z,18
2018-11-11T10:22:01.096Z,17
2018-11-11T10:23:01.096Z,15
2018-11-11T10:24:01.097Z,14
2018-11-11T10:25:01.101Z,15
2018-11-11T10:28:01.100Z,16
2018-11-11T10:30:01.099Z,19
2018-11-11T10:31:01.094Z,18
2018-11-11T10:33:01.094Z,19
2018-11-11T10:34:02.203Z,20
2018-11-11T10:35:01.099Z,18
2018-11-11T10:39:01.104Z,17
2018-11-11T10:40:01.101Z,16
2018-11-11T10:43:01.099Z,15
2018-11-11T10:44:01.096Z,16
2018-11-11T10:45:01.139Z,17
2018-11-11T10:46:01.996Z,16
2018-11-11T10:51:01.100Z,17
2018-11-11T10:52:01.094Z,16
2018-11-11T10:53:01.113Z,19
2018-11-11T10:55:01.100Z,18
2018-11-11T10:57:01.096Z,19
2018-11-11T10:58:01.095Z,17
2018-11-11T10:59:01.098Z,18
2018-11-11T11:00:01.135Z,17
2018-11-11T11:01:01.133Z,18
2018-11-11T11:03:01.097Z,16
2018-11-11T11:04:01.097Z,15
2018-11-11T11:05:01.121Z,14
2018-11-11T11:07:01.103Z,15
2018-11-11T11:08:01.097Z,16
2018-11-11T11:09:01.100Z,18
2018-11-11T11:10:01.097Z,20
2018-11-11T11:12:01.104Z,19
2018-11-11T11:13:01.103Z,20
2018-11-11T11:15:01.098Z,19
2018-11-11T11:16:01.101Z,17
2018-11-11T11:17:01.129Z,18
2018-11-11T11:18:01.098Z,17
2018-11-11T11:20:01.109Z,20
2018-11-11T11:22:01.136Z,19
2018-11-11T11:23:01.218Z,18
2018-11-11T11:25:01.082Z,19
2018-11-11T11:26:01.090Z,18
2018-11-11T11:27:01.123Z,17
2018-11-11T11:28:01.082Z,18
2018-11-11T11:29:01.091Z,19
2018-11-11T11:30:01.092Z,19
2018-11-11T11:32:01.269Z,20
2018-11-11T11:33:01.089Z,21
2018-11-11T11:34:01.089Z,19
2018-11-11T11:35:01.092Z,17
2018-11-11T11:36:01.090Z,16
2018-11-11T11:37:01.128Z,17
2018-11-11T11:38:01.108Z,15
2018-11-11T11:41:01.157Z,17
2018-11-11T11:42:01.087Z,16
2018-11-11T11:43:01.128Z,15
2018-11-11T11:44:01.100Z,16
2018-11-11T11:45:01.088Z,16
2018-11-11T11:46:01.092Z,15
2018-11-11T11:47:01.089Z,16
2018-11-11T11:49:01.087Z,15
2018-11-11T11:51:01.220Z,14
2018-11-11T11:52:01.148Z,13
2018-11-11T11:53:01.181Z,14
2018-11-11T11:55:01.100Z,16
2018-11-11T11:58:01.120Z,17
2018-11-11T11:59:01.089Z,15
2018-11-11T12:00:01.097Z,13
2018-11-11T12:02:01.115Z,14
2018-11-11T12:03:01.118Z,13
2018-11-11T12:04:01.091Z,15
2018-11-11T12:06:01.090Z,17
2018-11-11T12:08:01.090Z,20
2018-11-11T12:09:01.221Z,19
2018-11-11T12:10:01.094Z,21
2018-11-11T12:11:01.106Z,19
2018-11-11T12:12:01.094Z,17
2018-11-11T12:13:01.092Z,18
2018-11-11T12:14:01.094Z,17
2018-11-11T12:15:01.947Z,15
2018-11-11T12:16:01.091Z,17
2018-11-11T12:17:01.181Z,18
2018-11-11T12:18:01.096Z,16
2018-11-11T12:19:01.092Z,17
2018-11-11T12:20:01.091Z,18
2018-11-11T12:21:01.092Z,17
2018-11-11T12:25:01.093Z,18
2018-11-11T12:28:01.130Z,17
2018-11-11T12:30:02.381Z,16
2018-11-11T12:32:01.090Z,15
2018-11-11T12:35:01.129Z,17
2018-11-11T12:37:01.094Z,19
2018-11-11T12:39:01.120Z,18
2018-11-11T12:40:01.193Z,17
2018-11-11T12:41:01.089Z,18
2018-11-11T12:42:01.095Z,16
2018-11-11T12:43:01.090Z,15
2018-11-11T12:44:01.090Z,16
2018-11-11T12:45:01.092Z,15
2018-11-11T12:46:01.091Z,14
2018-11-11T12:47:01.183Z,15
2018-11-11T12:48:01.098Z,17
2018-11-11T12:50:01.130Z,16
2018-11-11T12:54:01.326Z,17
2018-11-11T12:56:01.093Z,16
2018-11-11T12:57:01.091Z,14
2018-11-11T12:59:01.119Z,15
2018-11-11T13:00:01.091Z,15
2018-11-11T13:01:01.090Z,16
2018-11-11T13:02:01.120Z,19
2018-11-11T13:03:01.093Z,17
2018-11-11T13:09:02.136Z,18
2018-11-11T13:11:01.224Z,17
2018-11-11T13:13:01.095Z,19
2018-11-11T13:14:01.127Z,20
2018-11-11T13:15:01.101Z,21
2018-11-11T13:19:01.128Z,20
2018-11-11T13:20:01.102Z,19
2018-11-11T13:21:01.095Z,20
2018-11-11T13:22:01.177Z,21
2018-11-11T13:23:01.164Z,19
2018-11-11T13:24:01.129Z,18
2018-11-11T13:25:01.099Z,19
2018-11-11T13:26:01.974Z,18
2018-11-11T13:27:01.096Z,19
2018-11-11T13:29:01.140Z,18
2018-11-11T13:30:01.096Z,18
2018-11-11T13:33:01.107Z,19
2018-11-11T13:34:01.100Z,18
2018-11-11T13:37:01.095Z,17
2018-11-11T13:38:06.416Z,15
2018-11-11T13:39:01.094Z,17
2018-11-11T13:40:01.096Z,18
2018-11-11T13:41:01.101Z,17
2018-11-11T13:44:01.096Z,15
2018-11-11T13:45:01.097Z,14
2018-11-11T13:46:01.097Z,13
2018-11-11T13:48:01.101Z,14
2018-11-11T13:49:01.096Z,15
2018-11-11T13:50:01.134Z,16
2018-11-11T13:51:01.790Z,17
2018-11-11T13:53:01.099Z,15
2018-11-11T13:55:01.135Z,16
2018-11-11T13:56:01.096Z,15
2018-11-11T13:57:01.097Z,17
2018-11-11T13:59:01.096Z,16
2018-11-11T14:00:01.134Z,16
2018-11-11T14:01:01.126Z,18
2018-11-11T14:02:01.102Z,19
2018-11-11T14:04:02.113Z,20
2018-11-11T14:05:01.136Z,21
2018-11-11T14:06:01.098Z,20
2018-11-11T14:10:06.229Z,18
2018-11-11T14:11:01.141Z,16
2018-11-11T14:12:01.128Z,14
2018-11-11T14:13:01.099Z,15
2018-11-11T14:14:01.106Z,14
2018-11-11T14:15:06.107Z,14
2018-11-11T14:18:01.138Z,15
2018-11-11T14:19:01.339Z,17
2018-11-11T14:23:01.155Z,15
2018-11-11T14:24:01.089Z,13
2018-11-11T14:26:02.207Z,15
2018-11-11T14:27:01.086Z,14
2018-11-11T14:28:01.088Z,15
2018-11-11T14:29:01.088Z,16
2018-11-11T14:30:01.090Z,17
2018-11-11T14:31:01.083Z,16
2018-11-11T14:32:01.136Z,18
2018-11-11T14:33:01.091Z,19
2018-11-11T14:34:01.084Z,18
2018-11-11T14:35:01.084Z,16
2018-11-11T14:36:01.084Z,15
2018-11-11T14:38:01.091Z,14
2018-11-11T14:40:01.241Z,15
2018-11-11T14:41:01.087Z,17
2018-11-11T14:43:01.089Z,18
2018-11-11T14:44:01.087Z,19
2018-11-11T14:45:01.091Z,18
2018-11-11T14:46:01.167Z,19
2018-11-11T14:48:01.113Z,18
2018-11-11T14:49:01.130Z,17
2018-11-11T14:50:01.087Z,18
2018-11-11T14:52:01.170Z,17
2018-11-11T14:53:01.149Z,16
2018-11-11T14:54:01.090Z,15
2018-11-11T14:55:01.093Z,17
2018-11-11T14:56:01.087Z,15
2018-11-11T14:57:01.091Z,16
2018-11-11T14:58:01.139Z,17
2018-11-11T15:00:02.127Z,16
2018-11-11T15:01:01.118Z,18
2018-11-11T15:03:01.090Z,16
2018-11-11T15:05:01.090Z,14
2018-11-11T15:06:01.129Z,12
2018-11-11T15:08:01.102Z,14
2018-11-11T15:09:01.091Z,13
2018-11-11T15:10:01.093Z,14
2018-11-11T15:11:01.131Z,16
2018-11-11T15:12:01.099Z,15
2018-11-11T15:15:01.091Z,14
2018-11-11T15:16:01.173Z,15
2018-11-11T15:17:01.092Z,16
2018-11-11T15:19:01.192Z,17
2018-11-11T15:21:01.272Z,16
2018-11-11T15:24:01.097Z,17
2018-11-11T15:25:01.100Z,16
2018-11-11T15:26:01.135Z,18
2018-11-11T15:27:01.098Z,17
2018-11-11T15:29:01.098Z,18
2018-11-11T15:30:01.104Z,18
2018-11-11T15:32:01.098Z,19
2018-11-11T15:33:01.101Z,20
2018-11-11T15:34:01.097Z,18
2018-11-11T15:35:01.097Z,19
2018-11-11T15:36:01.129Z,20
2018-11-11T15:37:01.100Z,19
2018-11-11T15:38:01.200Z,18
2018-11-11T15:40:01.103Z,21
2018-11-11T15:41:01.148Z,18
2018-11-11T15:44:01.103Z,17
2018-11-11T15:45:01.097Z,15
2018-11-11T15:46:01.136Z,16
2018-11-11T15:48:01.097Z,17
2018-11-11T15:49:01.097Z,16
2018-11-11T15:50:01.182Z,15
2018-11-11T15:51:01.126Z,16
2018-11-11T15:52:01.127Z,18
2018-11-11T15:55:01.098Z,20
2018-11-11T15:56:01.130Z,21
2018-11-11T15:57:01.100Z,20
2018-11-11T16:00:01.084Z,20
2018-11-11T16:02:01.083Z,19
2018-11-11T16:03:01.083Z,21
2018-11-11T16:08:01.085Z,18
2018-11-11T16:09:01.094Z,19
2018-11-11T16:11:01.248Z,18
2018-11-11T16:12:01.084Z,20
2018-11-11T16:13:01.100Z,21
2018-11-11T16:14:01.131Z,20
2018-11-11T16:15:01.087Z,18
2018-11-11T16:16:01.118Z,17
2018-11-11T16:17:01.085Z,15
2018-11-11T16:18:01.085Z,14
2018-11-11T16:19:01.086Z,16
2018-11-11T16:21:02.137Z,15
2018-11-11T16:22:01.083Z,17
2018-11-11T16:23:01.083Z,18
2018-11-11T16:26:01.115Z,20
2018-11-11T16:27:01.084Z,17
2018-11-11T16:29:01.083Z,14
2018-11-11T16:30:01.091Z,16
2018-11-11T16:31:01.121Z,15
2018-11-11T16:32:01.082Z,17
2018-11-11T16:33:01.088Z,16
2018-11-11T16:34:01.086Z,18
2018-11-11T16:35:01.085Z,16
2018-11-11T16:36:01.183Z,14
2018-11-11T16:38:02.061Z,17
2018-11-11T16:39:01.088Z,14
2018-11-11T16:40:01.094Z,15
2018-11-11T16:41:01.331Z,16
2018-11-11T16:43:01.084Z,14
2018-11-11T16:44:01.175Z,17
2018-11-11T16:45:01.157Z,17
2018-11-11T16:46:01.115Z,18
2018-11-11T16:47:01.085Z,16
2018-11-11T16:48:01.208Z,17
2018-11-11T16:49:01.087Z,15
2018-11-11T16:50:01.088Z,14
2018-11-11T16:52:01.134Z,15
2018-11-11T16:54:01.091Z,16
2018-11-11T16:55:01.125Z,18
2018-11-11T16:56:01.092Z,17
2018-11-11T16:57:01.090Z,16
2018-11-11T16:58:01.127Z,17
2018-11-11T16:59:01.087Z,18
2018-11-11T17:00:01.092Z,18
2018-11-11T17:01:01.088Z,17
2018-11-11T17:02:01.089Z,20
2018-11-11T17:05:01.122Z,19
2018-11-11T17:06:01.089Z,21
2018-11-11T17:07:01.091Z,17
2018-11-11T17:08:02.023Z,18
2018-11-11T17:09:01.090Z,16
2018-11-11T17:11:01.229Z,14
2018-11-11T17:14:01.174Z,15
2018-11-11T17:15:01.096Z,16
2018-11-11T17:16:01.095Z,19
2018-11-11T17:17:01.096Z,20
2018-11-11T17:18:01.102Z,19
2018-11-11T17:19:01.129Z,18
2018-11-11T17:21:01.280Z,17
2018-11-11T17:23:01.200Z,19
2018-11-11T17:25:06.163Z,17
2018-11-11T17:27:01.096Z,19
2018-11-11T17:28:01.128Z,17
2018-11-11T17:29:01.147Z,18
2018-11-11T17:30:01.132Z,20
2018-11-11T17:31:01.101Z,19
2018-11-11T17:35:01.098Z,18
2018-11-11T17:36:01.175Z,19
2018-11-11T17:37:01.868Z,18
2018-11-11T17:38:01.098Z,17
2018-11-11T17:39:01.176Z,18
2018-11-11T17:40:01.152Z,19
2018-11-11T17:43:01.167Z,20
2018-11-11T17:44:01.132Z,19
2018-11-11T17:45:01.102Z,17
2018-11-11T17:46:01.133Z,16
2018-11-11T17:49:01.101Z,15
2018-11-11T17:50:01.241Z,16
2018-11-11T17:51:01.130Z,17
2018-11-11T17:52:01.082Z,18
2018-11-11T17:53:01.082Z,19
2018-11-11T17:54:01.083Z,21
2018-11-11T17:55:01.927Z,20
2018-11-11T17:56:01.127Z,19
2018-11-11T17:57:01.082Z,18
2018-11-11T17:59:01.088Z,17
2018-11-11T18:00:01.090Z,18
2018-11-11T18:01:01.174Z,19
2018-11-11T18:04:01.087Z,16
2018-11-11T18:08:01.181Z,17
2018-11-11T18:09:01.087Z,18
2018-11-11T18:12:01.183Z,19
2018-11-11T18:13:01.095Z,18
2018-11-11T18:14:01.116Z,20
2018-11-11T18:15:01.088Z,19
2018-11-11T18:16:01.124Z,17
2018-11-11T18:17:01.162Z,16
2018-11-11T18:18:01.093Z,17
2018-11-11T18:19:01.087Z,15
2018-11-11T18:20:01.086Z,16
2018-11-11T18:21:01.132Z,18
2018-11-11T18:22:01.089Z,16
2018-11-11T18:23:01.089Z,15
2018-11-11T18:24:01.088Z,17
2018-11-11T18:25:01.086Z,16
2018-11-11T18:26:01.124Z,15
2018-11-11T18:27:01.240Z,17
2018-11-11T18:28:01.306Z,16
2018-11-11T18:29:01.087Z,14
2018-11-11T18:30:01.088Z,13
2018-11-11T18:33:01.120Z,14
2018-11-11T18:34:01.093Z,16
2018-11-11T18:35:01.088Z,18
2018-11-11T18:37:01.119Z,17
2018-11-11T18:38:01.182Z,19
2018-11-11T18:39:01.092Z,17
2018-11-11T18:40:01.145Z,14
2018-11-11T18:41:01.126Z,15
2018-11-11T18:42:01.089Z,16
2018-11-11T18:43:01.094Z,14
2018-11-11T18:45:01.089Z,16
2018-11-11T18:46:01.125Z,18
2018-11-11T18:47:01.091Z,15
2018-11-11T18:48:01.103Z,17
2018-11-11T18:49:01.090Z,18
2018-11-11T18:50:01.090Z,17
2018-11-11T18:51:01.118Z,16
2018-11-11T18:52:01.088Z,17
2018-11-11T18:53:01.093Z,16
2018-11-11T18:55:01.097Z,17
2018-11-11T18:56:01.170Z,18
2018-11-11T18:58:01.091Z,19
2018-11-11T18:59:01.089Z,20
2018-11-11T19:00:01.118Z,19
2018-11-11T19:01:01.141Z,20
2018-11-11T19:02:01.089Z,19
2018-11-11T19:03:01.092Z,18
2018-11-11T19:04:01.091Z,17
2018-11-11T19:06:01.091Z,16
2018-11-11T19:07:01.090Z,17
2018-11-11T19:11:01.303Z,18
2018-11-11T19:12:01.090Z,19
2018-11-11T19:13:01.091Z,18
2018-11-11T19:14:01.091Z,17
2018-11-11T19:15:01.092Z,19
2018-11-11T19:17:01.101Z,18
2018-11-11T19:18:01.092Z,20
2018-11-11T19:21:01.335Z,17
2018-11-11T19:23:01.076Z,18
2018-11-11T19:24:02.540Z,16
2018-11-11T19:25:01.086Z,14
2018-11-11T19:26:01.115Z,17
2018-11-11T19:28:01.147Z,16
2018-11-11T19:30:01.802Z,17
2018-11-11T19:31:01.115Z,16
2018-11-11T19:32:01.159Z,14
2018-11-11T19:34:01.081Z,16
2018-11-11T19:36:01.111Z,15
2018-11-11T19:37:01.081Z,16
2018-11-11T19:38:01.082Z,17
2018-11-11T19:39:01.083Z,16
2018-11-11T19:41:01.188Z,15
2018-11-11T19:42:01.199Z,16
2018-11-11T19:45:01.084Z,16
2018-11-11T19:46:01.278Z,17
2018-11-11T19:47:01.082Z,18
2018-11-11T19:50:01.219Z,17